createdAt,value
2024-04-12T00:01:43.364Z,100322.76
2024-04-12T00:07:01.126Z,100321.66
2024-04-12T00:12:02.834Z,100317.59
2024-04-12T00:17:17.291Z,100317.31
2024-04-12T00:22:19.728Z,100318.58
2024-04-12T00:27:22.878Z,100320.80
2024-04-12T00:32:27.573Z,100320.25
2024-04-12T00:37:34.315Z,100315.34
2024-04-12T00:42:36.155Z,100314.95
2024-04-12T00:47:38.436Z,100317.15
2024-04-12T00:52:44.672Z,100319.31
2024-04-12T00:57:46.837Z,100313.38
2024-04-12T01:02:50.357Z,100313.75
2024-04-12T01:07:57.640Z,100313.10
2024-04-12T01:13:04.119Z,100310.23
2024-04-12T01:18:16.568Z,100313.56
2024-04-12T01:23:19.000Z,100317.67
2024-04-12T01:28:21.018Z,100316.80
2024-04-12T01:33:22.892Z,100312.08
2024-04-12T01:38:24.890Z,100310.83
2024-04-12T01:43:28.603Z,100309.69
2024-04-12T01:48:32.091Z,100310.82
2024-04-12T01:53:38.739Z,100309.05
2024-04-12T01:58:42.271Z,100310.34
2024-04-12T02:03:44.796Z,100313.67
2024-04-12T02:08:46.851Z,100317.61
2024-04-12T02:13:48.614Z,100315.17
2024-04-12T02:18:50.352Z,100313.70
2024-04-12T02:23:54.198Z,100318.84
2024-04-12T02:29:00.319Z,100317.55
2024-04-12T02:34:03.489Z,100319.63
2024-04-12T02:39:09.295Z,100314.61
2024-04-12T02:44:11.309Z,100310.73
2024-04-12T02:49:14.179Z,100305.91
2024-04-12T02:54:17.703Z,100303.83
2024-04-12T02:59:19.547Z,100306.13
2024-04-12T03:04:21.863Z,100309.30
2024-04-12T03:09:28.422Z,100310.98
2024-04-12T03:14:31.900Z,100322.18
2024-04-12T03:19:33.819Z,100319.85
2024-04-12T03:24:35.521Z,100322.09
2024-04-12T03:29:37.489Z,100325.70
2024-04-12T03:34:39.257Z,100323.05
2024-04-12T03:39:40.919Z,100321.83
2024-04-12T03:44:44.064Z,100323.88
2024-04-12T03:49:46.024Z,100326.71
2024-04-12T03:54:48.970Z,100330.16
2024-04-12T03:59:58.561Z,100331.61
2024-04-12T04:05:15.083Z,100329.69
2024-04-12T04:10:21.694Z,100334.68
2024-04-12T04:15:27.217Z,100327.57
2024-04-12T04:20:29.645Z,100331.00
2024-04-12T04:25:32.991Z,100331.03
2024-04-12T04:30:36.554Z,100334.60
2024-04-12T04:35:38.426Z,100337.27
2024-04-12T04:40:40.165Z,100336.15
2024-04-12T04:45:42.023Z,100335.45
2024-04-12T04:50:44.760Z,100337.52
2024-04-12T04:55:46.601Z,100337.01
2024-04-12T05:00:50.677Z,100342.10
2024-04-12T05:05:53.591Z,100341.95
2024-04-12T05:10:56.865Z,100340.81
2024-04-12T05:15:59.188Z,100333.75
2024-04-12T05:21:01.249Z,100328.14
2024-04-12T05:26:03.237Z,100325.45
2024-04-12T05:31:13.106Z,100324.89
2024-04-12T05:36:15.684Z,100325.45
2024-04-12T05:41:17.439Z,100321.86
2024-04-12T05:46:23.651Z,100324.72
2024-04-12T05:51:26.331Z,100326.36
2024-04-12T05:56:30.289Z,100327.48
2024-04-12T06:01:35.009Z,100325.45
2024-04-12T06:06:36.956Z,100324.17
2024-04-12T06:11:38.686Z,100320.91
2024-04-12T06:16:41.360Z,100329.30
2024-04-12T06:21:46.839Z,100329.41
2024-04-12T06:26:49.244Z,100335.06
2024-04-12T06:31:51.805Z,100322.98
2024-04-12T06:37:07.164Z,100325.73
2024-04-12T06:42:10.237Z,100333.02
2024-04-12T06:47:14.608Z,100333.46
2024-04-12T06:52:22.138Z,100330.00
2024-04-12T06:57:26.487Z,100326.82
2024-04-12T07:02:31.843Z,100324.88
2024-04-12T07:07:34.582Z,100327.00
2024-04-12T07:12:39.239Z,100289.54
2024-04-12T07:17:41.396Z,100328.83
2024-04-12T07:22:43.497Z,100327.84
2024-04-12T07:27:49.317Z,100329.33
2024-04-12T07:32:51.867Z,100331.36
2024-04-12T07:38:03.595Z,100331.55
2024-04-12T07:43:11.523Z,100329.41
2024-04-12T07:48:23.639Z,100333.57
2024-04-12T07:53:27.439Z,100333.39
2024-04-12T07:58:35.450Z,100328.26
2024-04-12T08:03:38.852Z,100325.70
2024-04-12T08:08:46.791Z,100323.98
2024-04-12T08:13:51.826Z,100322.83
2024-04-12T08:18:56.749Z,100320.13
2024-04-12T08:23:59.852Z,100321.78
2024-04-12T08:29:07.943Z,100321.89
2024-04-12T08:34:15.441Z,100316.15
2024-04-12T08:39:27.553Z,100310.41
2024-04-12T08:44:32.709Z,100310.65
2024-04-12T08:49:34.544Z,100311.41
2024-04-12T08:54:42.848Z,100302.80
2024-04-12T08:59:48.293Z,100301.98
2024-04-12T09:04:53.606Z,100304.26
2024-04-12T09:09:55.826Z,100300.30
2024-04-12T09:15:00.320Z,100301.02
2024-04-12T09:20:05.247Z,100304.32
2024-04-12T09:25:15.929Z,100293.95
2024-04-12T09:30:36.418Z,100293.25
2024-04-12T09:35:40.642Z,100289.94
2024-04-12T09:40:50.428Z,100281.98
2024-04-12T09:46:06.864Z,100271.94
2024-04-12T09:51:27.886Z,100264.84
2024-04-12T09:56:49.934Z,100254.94
2024-04-12T10:02:14.151Z,100250.89
2024-04-12T10:07:39.146Z,100251.05
2024-04-12T10:13:00.588Z,100236.11
2024-04-12T10:18:25.666Z,100231.16
2024-04-12T10:23:49.839Z,100226.52
2024-04-12T10:29:13.001Z,100224.06
2024-04-12T10:34:35.754Z,100216.59
2024-04-12T10:39:45.632Z,100216.54
2024-04-12T10:44:57.634Z,100203.83
2024-04-12T10:49:59.740Z,100204.94
2024-04-12T10:55:12.177Z,100196.25
2024-04-12T11:00:29.096Z,100190.43
2024-04-12T11:05:30.808Z,100183.02
2024-04-12T11:10:41.858Z,100184.15
2024-04-12T11:15:43.945Z,100182.52
2024-04-12T11:21:14.665Z,100184.27
2024-04-12T11:26:39.145Z,100176.23
2024-04-12T11:31:41.297Z,100174.45
2024-04-12T11:36:45.858Z,100171.58
2024-04-12T11:41:48.823Z,100163.61
2024-04-12T11:46:52.100Z,100148.88
2024-04-12T11:51:56.762Z,100142.19
2024-04-12T11:57:00.791Z,100134.55
2024-04-12T12:02:05.429Z,100126.30
2024-04-12T12:07:12.258Z,100116.89
2024-04-12T12:12:14.779Z,100107.70
2024-04-12T12:17:19.583Z,100108.20
2024-04-12T12:22:22.923Z,100114.87
2024-04-12T12:27:25.337Z,100112.96
2024-04-12T12:32:27.758Z,100110.81
2024-04-12T12:37:30.348Z,100106.70
2024-04-12T12:42:33.457Z,100100.86
2024-04-12T12:47:36.710Z,100100.74
2024-04-12T12:52:38.614Z,100088.66
2024-04-12T12:57:40.598Z,100077.70
2024-04-12T13:02:43.332Z,100067.78
2024-04-12T13:07:45.398Z,100064.54
2024-04-12T13:12:52.510Z,100059.77
2024-04-12T13:17:54.431Z,100051.10
2024-04-12T13:22:56.340Z,100049.91
2024-04-12T13:28:01.952Z,100038.14
2024-04-12T13:33:09.560Z,100026.45
2024-04-12T13:38:14.982Z,100016.46
2024-04-12T13:43:18.128Z,100014.82
2024-04-12T13:48:38.771Z,100012.01
2024-04-12T13:53:44.997Z,100003.67
2024-04-12T13:58:54.607Z,100000.63
2024-04-12T14:04:05.096Z,99993.88
2024-04-12T14:09:10.806Z,99995.26
2024-04-12T14:14:12.697Z,99991.42
2024-04-12T14:19:23.693Z,99989.16
2024-04-12T14:24:44.427Z,99988.80
2024-04-12T14:29:46.845Z,99978.00
2024-04-12T14:34:58.228Z,99973.48
2024-04-12T14:40:09.088Z,99972.10
2024-04-12T14:45:10.815Z,99963.22
2024-04-12T14:50:12.767Z,99959.27
2024-04-12T14:55:16.904Z,99944.56
2024-04-12T15:00:20.927Z,99932.14
2024-04-12T15:05:41.578Z,99928.61
2024-04-12T15:11:02.570Z,99926.71
2024-04-12T15:16:22.998Z,99917.90
2024-04-12T15:21:43.588Z,99914.45
2024-04-12T15:27:03.913Z,99904.80
2024-04-12T15:32:24.539Z,99900.42
2024-04-12T15:37:45.371Z,99899.92
2024-04-12T15:43:05.971Z,99899.64
2024-04-12T15:48:13.090Z,99897.02
2024-04-12T15:53:26.781Z,99897.82
2024-04-12T15:58:48.946Z,99897.40
2024-04-12T16:04:09.314Z,99887.65
2024-04-12T16:09:29.770Z,99884.20
2024-04-12T16:14:31.687Z,99880.38
2024-04-12T16:19:34.116Z,99886.26
2024-04-12T16:24:36.173Z,99881.15
2024-04-12T16:29:38.131Z,99881.64
2024-04-12T16:34:39.950Z,99880.48
2024-04-12T16:39:42.009Z,99876.33
2024-04-12T16:44:43.888Z,99877.66
2024-04-12T16:49:45.786Z,99874.00
2024-04-12T16:54:47.850Z,99878.95
2024-04-12T16:59:49.871Z,99876.69
2024-04-12T17:04:54.067Z,99871.92
2024-04-12T17:09:58.913Z,99869.04
2024-04-12T17:15:00.638Z,99860.60
2024-04-12T17:20:04.060Z,99861.61
2024-04-12T17:25:09.960Z,99868.48
2024-04-12T17:30:12.923Z,99869.73
2024-04-12T17:35:16.349Z,99866.64
2024-04-12T17:40:21.121Z,99866.82
2024-04-12T17:45:24.131Z,99859.58
2024-04-12T17:50:26.473Z,99858.55
2024-04-12T17:55:28.330Z,99857.82
2024-04-12T18:00:30.080Z,99856.25
2024-04-12T18:05:31.821Z,99857.73
2024-04-12T18:10:33.525Z,99854.17
2024-04-12T18:15:38.927Z,99862.30
2024-04-12T18:20:42.605Z,99863.86
2024-04-12T18:25:44.530Z,99866.95
2024-04-12T18:30:46.242Z,99863.14
2024-04-12T18:36:02.643Z,99861.73
2024-04-12T18:41:24.984Z,99858.55
2024-04-12T18:46:26.758Z,99857.45
2024-04-12T18:51:28.452Z,99862.56
2024-04-12T18:56:30.460Z,99864.73
2024-04-12T19:01:32.296Z,99862.48
2024-04-12T19:06:34.457Z,99859.86
2024-04-12T19:11:36.361Z,99858.83
2024-04-12T19:16:41.654Z,99848.50
2024-04-12T19:21:44.942Z,99849.30
2024-04-12T19:26:46.695Z,99848.88
2024-04-12T19:31:51.541Z,99854.97
2024-04-12T19:36:53.474Z,99850.89
2024-04-12T19:41:57.195Z,99850.42
2024-04-12T19:46:59.358Z,99847.60
2024-04-12T19:52:04.870Z,99840.14
2024-04-12T19:57:06.981Z,99835.96
2024-04-12T20:02:09.022Z,99839.14
2024-04-12T20:07:10.960Z,99838.80
2024-04-12T20:12:13.014Z,99835.20
2024-04-12T20:17:22.310Z,99830.91
2024-04-12T20:22:24.177Z,99822.14
2024-04-12T20:27:25.902Z,99822.70
2024-04-12T20:32:37.362Z,99815.77
2024-04-12T20:37:39.555Z,99815.94
2024-04-12T20:42:41.348Z,99809.94
2024-04-12T20:47:43.228Z,99804.05
2024-04-12T20:52:45.062Z,99795.89
2024-04-12T20:57:46.998Z,99789.89
2024-04-12T21:02:48.652Z,99789.25
2024-04-12T21:07:58.208Z,99788.85
2024-04-12T21:12:59.967Z,99793.10
2024-04-12T21:18:01.825Z,99791.52
2024-04-12T21:23:09.163Z,99800.83
2024-04-12T21:28:24.558Z,99807.23
2024-04-12T21:33:27.969Z,99812.48
2024-04-12T21:38:32.150Z,99811.66
2024-04-12T21:43:37.379Z,99814.33
2024-04-12T21:48:41.627Z,99817.41
2024-04-12T21:53:43.477Z,99817.09
2024-04-12T21:58:45.369Z,99810.77
2024-04-12T22:03:47.387Z,99807.14
2024-04-12T22:08:52.318Z,99804.98
2024-04-12T22:13:54.086Z,99807.05
2024-04-12T22:18:56.051Z,99806.88
2024-04-12T22:24:00.239Z,99809.14
2024-04-12T22:29:02.063Z,99810.45
2024-04-12T22:34:03.801Z,99808.58
2024-04-12T22:39:05.616Z,99805.96
2024-04-12T22:44:07.523Z,99789.70
2024-04-12T22:49:09.189Z,99794.48
2024-04-12T22:54:10.959Z,99790.94
2024-04-12T22:59:12.759Z,99791.23
2024-04-12T23:04:14.526Z,99790.99
2024-04-12T23:09:20.383Z,99797.56
2024-04-12T23:14:22.511Z,99795.83
2024-04-12T23:19:24.452Z,99788.04
2024-04-12T23:24:26.230Z,99793.98
2024-04-12T23:29:28.102Z,99791.11
2024-04-12T23:34:29.884Z,99788.13
2024-04-12T23:39:31.784Z,99785.23
2024-04-12T23:44:34.150Z,99781.09
2024-04-12T23:49:35.879Z,99780.19
2024-04-12T23:54:38.259Z,99784.15
2024-04-12T23:59:40.101Z,99782.67
